Time;durP1;ratioP1;P1;durP2;ratioP2;P2;SDS_P1;SDS_P2;PMS_P1;PMS_P2;Temp;Humidity;BMP_temperature;BMP_pressure;BME280_temperature;BME280_humidity;BME280_pressure;Samples;Min_cycle;Max_cycle;Signal;HPM_P1;HPM_P2
2023/03/31 00:00:52;;;;;;;3.63;2.67;;;;;;;;;;5007399;28;20190;-58
2023/03/31 00:03:22;;;;;;;3.60;2.60;;;;;;;;;;5008596;28;20266;-52
2023/03/31 00:05:52;;;;;;;4.77;2.57;;;;;;;;;;5006813;28;20190;-53
2023/03/31 00:08:18;;;;;;;3.30;2.33;;;;;;;;;;5010462;28;20249;-53
2023/03/31 00:10:46;;;;;;;4.33;2.03;;;;;;;;;;5007710;28;20174;-52
2023/03/31 00:13:12;;;;;;;3.87;2.43;;;;;;;;;;5007651;28;20558;-52
2023/03/31 00:15:39;;;;;;;4.00;2.63;;;;;;;;;;5008130;28;20175;-53
2023/03/31 00:18:05;;;;;;;2.37;2.17;;;;;;;;;;5006796;28;20521;-54
2023/03/31 00:20:32;;;;;;;4.77;2.27;;;;;;;;;;5004409;28;20224;-53
2023/03/31 00:23:00;;;;;;;5.73;2.60;;;;;;;;;;5004019;28;20682;-52
2023/03/31 00:25:27;;;;;;;3.40;2.30;;;;;;;;;;5006716;28;20183;-53
2023/03/31 00:27:53;;;;;;;5.13;2.23;;;;;;;;;;5011248;28;20697;-52
2023/03/31 00:30:19;;;;;;;3.37;2.30;;;;;;;;;;5005434;28;20182;-52
2023/03/31 00:32:45;;;;;;;4.83;2.30;;;;;;;;;;5008230;28;20329;-52
2023/03/31 00:35:11;;;;;;;2.70;2.07;;;;;;;;;;5005518;28;20170;-53
2023/03/31 00:37:37;;;;;;;5.00;2.27;;;;;;;;;;5007743;28;20190;-53
2023/03/31 00:40:13;;;;;;;4.67;2.07;;;;;;;;;;5003854;28;20317;-54
2023/03/31 00:42:42;;;;;;;2.67;2.20;;;;;;;;;;5007610;28;20182;-52
2023/03/31 00:45:17;;;;;;;3.97;2.60;;;;;;;;;;5007672;28;20179;-52
2023/03/31 00:48:13;;;;;;;4.60;2.57;;;;;;;;;;5008224;28;20198;-52
2023/03/31 00:50:53;;;;;;;3.70;2.10;;;;;;;;;;5001081;28;20618;-52
2023/03/31 00:53:21;;;;;;;3.27;2.83;;;;;;;;;;5011712;28;20174;-53
2023/03/31 00:55:50;;;;;;;4.50;2.10;;;;;;;;;;5007668;28;20193;-52
2023/03/31 00:58:19;;;;;;;3.20;2.20;;;;;;;;;;5005949;28;20213;-52
2023/03/31 01:00:46;;;;;;;5.50;2.40;;;;;;;;;;5006977;28;20461;-54
2023/03/31 01:03:13;;;;;;;2.30;2.10;;;;;;;;;;5004811;28;20681;-53
2023/03/31 01:05:56;;;;;;;2.83;2.33;;;;;;;;;;5004781;28;20186;-53
2023/03/31 01:08:24;;;;;;;3.77;2.00;;;;;;;;;;5002541;28;20202;-52
2023/03/31 01:10:52;;;;;;;3.57;2.40;;;;;;;;;;5006276;28;20206;-53
2023/03/31 01:13:19;;;;;;;4.00;2.47;;;;;;;;;;5007003;28;20178;-53
2023/03/31 01:15:45;;;;;;;2.47;2.20;;;;;;;;;;5007704;28;20720;-52
2023/03/31 01:18:12;;;;;;;3.17;2.00;;;;;;;;;;5009658;28;20243;-53
2023/03/31 01:20:51;;;;;;;2.40;2.20;;;;;;;;;;5004460;28;20745;-52
2023/03/31 01:23:36;;;;;;;4.47;2.77;;;;;;;;;;5003163;28;20194;-53
2023/03/31 01:26:15;;;;;;;4.10;2.40;;;;;;;;;;5005575;28;20186;-53
2023/03/31 01:28:44;;;;;;;3.13;2.13;;;;;;;;;;5007954;28;20202;-53
2023/03/31 01:31:20;;;;;;;3.93;2.00;;;;;;;;;;5005259;28;20166;-53
2023/03/31 01:33:55;;;;;;;4.17;2.30;;;;;;;;;;5006161;28;20178;-58
2023/03/31 01:36:27;;;;;;;2.17;1.97;;;;;;;;;;5006073;28;20549;-52
2023/03/31 01:38:53;;;;;;;2.23;2.03;;;;;;;;;;5012723;28;20539;-52
2023/03/31 01:41:20;;;;;;;2.33;1.97;;;;;;;;;;5006393;28;20418;-53
2023/03/31 01:43:51;;;;;;;2.43;2.10;;;;;;;;;;5004662;28;20190;-53
2023/03/31 01:46:24;;;;;;;3.33;1.70;;;;;;;;;;5004981;28;20650;-53
2023/03/31 01:49:07;;;;;;;3.57;2.00;;;;;;;;;;5006247;28;20249;-53
2023/03/31 01:51:43;;;;;;;3.33;2.10;;;;;;;;;;5004706;28;20354;-53
2023/03/31 01:54:19;;;;;;;2.70;2.10;;;;;;;;;;5010185;28;20187;-53
2023/03/31 01:56:46;;;;;;;2.83;2.00;;;;;;;;;;5007008;28;20654;-53
2023/03/31 01:59:31;;;;;;;2.30;2.10;;;;;;;;;;5011426;28;20174;-53
2023/03/31 02:02:03;;;;;;;2.50;2.10;;;;;;;;;;5004355;28;20261;-53
2023/03/31 02:04:34;;;;;;;3.97;2.10;;;;;;;;;;5006648;28;20653;-53
2023/03/31 02:07:03;;;;;;;2.27;2.07;;;;;;;;;;5006913;28;20187;-52
2023/03/31 02:09:33;;;;;;;3.43;1.97;;;;;;;;;;5012199;28;20650;-52
2023/03/31 02:12:00;;;;;;;3.13;1.93;;;;;;;;;;5003824;28;20609;-53
2023/03/31 02:14:28;;;;;;;4.20;2.10;;;;;;;;;;5006421;28;20611;-53
2023/03/31 02:17:01;;;;;;;3.80;1.77;;;;;;;;;;5006745;28;20170;-52
2023/03/31 02:19:33;;;;;;;4.93;2.60;;;;;;;;;;4999305;28;20189;-53
2023/03/31 02:22:00;;;;;;;2.43;1.90;;;;;;;;;;5003663;28;20713;-59
2023/03/31 02:24:27;;;;;;;3.40;1.87;;;;;;;;;;5006246;28;20512;-53
2023/03/31 02:27:02;;;;;;;4.63;2.57;;;;;;;;;;5010340;28;20231;-52
2023/03/31 02:29:28;;;;;;;3.07;2.03;;;;;;;;;;5013224;28;20256;-53
2023/03/31 02:31:59;;;;;;;6.33;2.63;;;;;;;;;;5006465;28;20177;-52
2023/03/31 02:34:25;;;;;;;7.57;2.20;;;;;;;;;;5010109;28;20638;-52
2023/03/31 02:36:51;;;;;;;4.90;2.13;;;;;;;;;;5008477;28;20710;-55
2023/03/31 02:39:19;;;;;;;3.23;2.33;;;;;;;;;;5009460;28;20540;-53
2023/03/31 02:41:45;;;;;;;4.43;2.43;;;;;;;;;;5009289;28;20186;-53
2023/03/31 02:44:12;;;;;;;4.10;2.13;;;;;;;;;;5008273;28;20248;-52
2023/03/31 02:46:39;;;;;;;3.90;2.33;;;;;;;;;;5005658;28;20265;-53
2023/03/31 02:49:06;;;;;;;3.80;2.20;;;;;;;;;;5011081;28;20206;-52
2023/03/31 02:51:47;;;;;;;3.70;2.20;;;;;;;;;;5008448;28;20174;-52
2023/03/31 02:54:28;;;;;;;6.87;2.97;;;;;;;;;;5011237;28;20186;-52
2023/03/31 02:57:01;;;;;;;4.53;2.50;;;;;;;;;;5010247;28;20178;-52
2023/03/31 02:59:52;;;;;;;3.73;2.13;;;;;;;;;;5011075;28;20197;-52
2023/03/31 03:02:36;;;;;;;4.37;3.00;;;;;;;;;;5007430;28;20441;-53
2023/03/31 03:05:02;;;;;;;4.50;2.20;;;;;;;;;;5004264;28;20214;-52
2023/03/31 03:07:44;;;;;;;2.53;2.30;;;;;;;;;;5008916;28;20312;-53
2023/03/31 03:10:20;;;;;;;3.77;1.97;;;;;;;;;;5007817;28;20308;-52
2023/03/31 03:12:55;;;;;;;3.57;2.70;;;;;;;;;;5008097;28;20201;-52
2023/03/31 03:15:34;;;;;;;5.43;2.33;;;;;;;;;;5009192;28;20627;-52
2023/03/31 03:18:00;;;;;;;3.73;3.20;;;;;;;;;;5005938;28;20178;-53
2023/03/31 03:20:26;;;;;;;4.50;2.40;;;;;;;;;;5007811;28;20222;-53
2023/03/31 03:22:52;;;;;;;3.43;2.03;;;;;;;;;;5008416;28;20187;-52
2023/03/31 03:25:19;;;;;;;8.50;2.73;;;;;;;;;;5014960;28;20506;-52
2023/03/31 03:27:46;;;;;;;6.30;2.47;;;;;;;;;;5009737;28;20249;-52
2023/03/31 03:30:13;;;;;;;6.27;2.30;;;;;;;;;;5007991;28;20883;-52
2023/03/31 03:32:40;;;;;;;4.47;2.10;;;;;;;;;;5008745;28;20190;-53
2023/03/31 03:35:06;;;;;;;3.67;2.13;;;;;;;;;;5006423;28;20619;-52
2023/03/31 03:37:33;;;;;;;7.23;2.30;;;;;;;;;;5004924;28;20185;-54
2023/03/31 03:39:59;;;;;;;6.33;2.63;;;;;;;;;;5008838;28;20198;-52
2023/03/31 03:42:25;;;;;;;2.63;2.30;;;;;;;;;;5009055;28;20540;-52
2023/03/31 03:44:51;;;;;;;4.83;2.43;;;;;;;;;;5007191;28;20185;-52
2023/03/31 03:47:17;;;;;;;5.77;1.97;;;;;;;;;;5010267;28;20194;-52
2023/03/31 03:49:43;;;;;;;7.30;2.53;;;;;;;;;;5007540;28;20186;-52
2023/03/31 03:52:09;;;;;;;7.57;2.47;;;;;;;;;;5008462;28;20186;-52
2023/03/31 03:54:35;;;;;;;6.93;2.60;;;;;;;;;;5007635;28;20175;-53
2023/03/31 03:57:01;;;;;;;4.10;2.37;;;;;;;;;;5008693;28;20528;-53
2023/03/31 03:59:27;;;;;;;6.27;2.40;;;;;;;;;;5007778;28;20183;-52
2023/03/31 04:01:54;;;;;;;4.60;2.83;;;;;;;;;;5007840;28;20541;-53
2023/03/31 04:04:20;;;;;;;5.13;2.30;;;;;;;;;;5009106;28;20186;-53
2023/03/31 04:06:46;;;;;;;4.87;2.67;;;;;;;;;;5006572;28;20175;-53
2023/03/31 04:09:12;;;;;;;4.97;3.80;;;;;;;;;;5005766;28;20257;-53
2023/03/31 04:11:38;;;;;;;4.40;2.57;;;;;;;;;;4996964;28;20211;-53
2023/03/31 04:14:04;;;;;;;3.63;2.03;;;;;;;;;;5013089;28;20538;-53
2023/03/31 04:16:31;;;;;;;6.27;2.63;;;;;;;;;;5006209;28;20174;-52
2023/03/31 04:18:57;;;;;;;3.63;2.20;;;;;;;;;;5006266;28;20214;-52
2023/03/31 04:21:24;;;;;;;4.43;3.53;;;;;;;;;;5006633;28;20304;-53
2023/03/31 04:24:03;;;;;;;5.93;2.40;;;;;;;;;;5006272;28;20187;-53
2023/03/31 04:26:30;;;;;;;4.80;2.63;;;;;;;;;;5006968;28;20185;-52
2023/03/31 04:28:59;;;;;;;6.90;2.60;;;;;;;;;;5006075;28;20572;-52
2023/03/31 04:31:25;;;;;;;4.30;2.70;;;;;;;;;;5006841;28;20562;-52
2023/03/31 04:33:54;;;;;;;5.43;2.40;;;;;;;;;;5009009;28;20532;-52
2023/03/31 04:36:21;;;;;;;5.53;2.77;;;;;;;;;;5007572;28;20635;-53
2023/03/31 04:38:49;;;;;;;6.20;2.90;;;;;;;;;;5005044;28;20186;-53
2023/03/31 04:41:18;;;;;;;4.83;2.63;;;;;;;;;;5006860;28;20187;-55
2023/03/31 04:43:44;;;;;;;6.00;2.60;;;;;;;;;;5005949;28;20209;-53
2023/03/31 04:46:10;;;;;;;5.27;3.70;;;;;;;;;;5002746;28;20668;-53
2023/03/31 04:48:37;;;;;;;7.60;2.33;;;;;;;;;;5009748;28;20210;-53
2023/03/31 04:51:03;;;;;;;6.13;3.20;;;;;;;;;;5006331;28;20761;-53
2023/03/31 04:53:29;;;;;;;4.77;2.50;;;;;;;;;;4999238;28;20552;-53
2023/03/31 04:55:55;;;;;;;4.70;2.20;;;;;;;;;;5002977;28;20244;-53
2023/03/31 04:58:21;;;;;;;6.13;3.90;;;;;;;;;;5006863;28;20179;-53
2023/03/31 05:00:48;;;;;;;4.93;3.93;;;;;;;;;;5002357;28;20187;-53
2023/03/31 05:03:14;;;;;;;4.17;2.37;;;;;;;;;;5002824;28;20209;-53
2023/03/31 05:05:40;;;;;;;6.77;2.80;;;;;;;;;;5009009;28;20182;-53
2023/03/31 05:08:06;;;;;;;4.07;2.57;;;;;;;;;;5001204;28;20714;-53
2023/03/31 05:10:32;;;;;;;4.53;2.47;;;;;;;;;;5004712;28;20225;-53
2023/03/31 05:12:58;;;;;;;6.03;2.47;;;;;;;;;;5006991;28;20549;-56
2023/03/31 05:15:24;;;;;;;5.80;2.53;;;;;;;;;;5002285;28;20692;-53
2023/03/31 05:17:51;;;;;;;4.70;2.33;;;;;;;;;;5006133;28;20201;-53
2023/03/31 05:20:18;;;;;;;2.80;1.90;;;;;;;;;;5000075;28;20214;-53
2023/03/31 05:22:44;;;;;;;6.63;3.37;;;;;;;;;;5005030;28;20273;-53
2023/03/31 05:25:13;;;;;;;2.83;2.20;;;;;;;;;;5008670;28;20270;-53
2023/03/31 05:27:39;;;;;;;3.57;2.00;;;;;;;;;;5004402;28;20297;-52
2023/03/31 05:30:06;;;;;;;4.60;2.13;;;;;;;;;;5003714;28;20225;-53
2023/03/31 05:32:33;;;;;;;3.57;2.20;;;;;;;;;;5007003;28;20686;-53
2023/03/31 05:34:59;;;;;;;4.40;2.13;;;;;;;;;;5003987;28;20175;-53
2023/03/31 05:37:25;;;;;;;4.83;2.07;;;;;;;;;;5006397;28;20170;-53
2023/03/31 05:39:52;;;;;;;6.90;2.37;;;;;;;;;;5003337;28;20174;-53
2023/03/31 05:42:19;;;;;;;4.10;2.13;;;;;;;;;;5004487;28;20186;-53
2023/03/31 05:44:45;;;;;;;4.63;2.27;;;;;;;;;;5003152;28;20194;-53
2023/03/31 05:47:11;;;;;;;4.10;2.07;;;;;;;;;;5005189;28;20229;-54
2023/03/31 05:49:37;;;;;;;3.93;1.70;;;;;;;;;;5007057;28;20203;-53
2023/03/31 05:52:05;;;;;;;5.13;2.30;;;;;;;;;;5005918;28;20193;-53
2023/03/31 05:54:31;;;;;;;3.17;2.20;;;;;;;;;;5008290;28;20194;-53
2023/03/31 05:56:57;;;;;;;2.43;2.00;;;;;;;;;;5005759;28;20576;-53
2023/03/31 05:59:23;;;;;;;3.53;1.70;;;;;;;;;;5010859;28;20539;-53
2023/03/31 06:01:49;;;;;;;3.60;2.20;;;;;;;;;;5011483;28;20217;-53
2023/03/31 06:04:15;;;;;;;2.63;1.70;;;;;;;;;;5009568;28;20301;-53
2023/03/31 06:06:43;;;;;;;6.23;2.37;;;;;;;;;;5005508;28;20670;-53
2023/03/31 06:09:12;;;;;;;3.47;2.10;;;;;;;;;;5008334;28;21196;-53
2023/03/31 06:11:38;;;;;;;4.33;1.97;;;;;;;;;;5009282;28;20203;-53
2023/03/31 06:14:04;;;;;;;5.23;1.90;;;;;;;;;;5011037;28;20213;-53
2023/03/31 06:16:30;;;;;;;3.43;1.90;;;;;;;;;;5008762;28;20541;-53
2023/03/31 06:18:56;;;;;;;2.63;2.33;;;;;;;;;;5005676;28;20221;-53
2023/03/31 06:21:23;;;;;;;4.50;1.87;;;;;;;;;;5013447;28;20304;-53
2023/03/31 06:23:49;;;;;;;2.80;2.43;;;;;;;;;;5014017;28;20589;-53
2023/03/31 06:26:18;;;;;;;5.00;2.23;;;;;;;;;;5008627;28;20197;-53
2023/03/31 06:28:45;;;;;;;2.13;1.90;;;;;;;;;;5006951;28;20203;-53
2023/03/31 06:31:13;;;;;;;5.10;2.63;;;;;;;;;;5009565;28;20183;-53
2023/03/31 06:33:41;;;;;;;3.33;2.00;;;;;;;;;;5010413;28;20570;-54
2023/03/31 06:36:08;;;;;;;6.17;2.00;;;;;;;;;;5012933;28;20248;-54
2023/03/31 06:38:35;;;;;;;2.60;2.03;;;;;;;;;;5006548;28;20190;-53
2023/03/31 06:41:01;;;;;;;4.37;2.20;;;;;;;;;;5010830;28;20193;-53
2023/03/31 06:43:27;;;;;;;3.53;2.03;;;;;;;;;;5010071;28;20297;-53
2023/03/31 06:45:53;;;;;;;2.60;2.10;;;;;;;;;;5008547;28;20178;-53
2023/03/31 06:48:20;;;;;;;4.40;1.90;;;;;;;;;;5007938;28;20285;-53
2023/03/31 06:50:46;;;;;;;4.57;1.93;;;;;;;;;;5008557;28;20174;-53
2023/03/31 06:53:12;;;;;;;2.53;2.27;;;;;;;;;;5009742;28;20642;-53
2023/03/31 06:55:38;;;;;;;3.70;2.50;;;;;;;;;;5007578;28;20178;-53
2023/03/31 06:58:05;;;;;;;4.00;2.10;;;;;;;;;;5008400;28;20237;-53
2023/03/31 07:00:32;;;;;;;3.00;1.87;;;;;;;;;;5009034;28;20573;-53
2023/03/31 07:02:58;;;;;;;3.67;2.20;;;;;;;;;;5010557;28;20238;-53
2023/03/31 07:05:27;;;;;;;3.03;2.50;;;;;;;;;;5007973;28;20615;-53
2023/03/31 07:07:57;;;;;;;4.20;2.77;;;;;;;;;;5006749;28;20287;-53
2023/03/31 07:10:24;;;;;;;3.93;2.50;;;;;;;;;;5007286;28;20183;-53
2023/03/31 07:12:50;;;;;;;3.73;2.33;;;;;;;;;;5009661;28;20660;-53
2023/03/31 07:15:17;;;;;;;2.27;1.80;;;;;;;;;;5010014;28;20589;-53
2023/03/31 07:17:43;;;;;;;3.00;2.00;;;;;;;;;;5008753;28;20187;-53
2023/03/31 07:20:16;;;;;;;3.70;2.03;;;;;;;;;;5011541;28;20174;-53
2023/03/31 07:22:43;;;;;;;3.00;2.17;;;;;;;;;;5008687;28;20214;-52
2023/03/31 07:25:10;;;;;;;4.83;2.40;;;;;;;;;;5003246;28;20171;-52
2023/03/31 07:27:37;;;;;;;3.13;2.00;;;;;;;;;;5007230;28;20225;-52
2023/03/31 07:30:06;;;;;;;7.17;2.53;;;;;;;;;;5011940;28;20638;-52
2023/03/31 07:32:32;;;;;;;2.87;1.80;;;;;;;;;;5009574;28;20588;-52
2023/03/31 07:34:59;;;;;;;7.63;2.87;;;;;;;;;;5007204;28;20263;-52
2023/03/31 07:37:25;;;;;;;3.13;2.10;;;;;;;;;;5006819;28;20179;-52
2023/03/31 07:39:51;;;;;;;3.00;2.07;;;;;;;;;;5016541;28;20194;-50
2023/03/31 07:42:17;;;;;;;5.60;2.20;;;;;;;;;;5005834;28;20265;-50
2023/03/31 07:44:44;;;;;;;3.30;2.30;;;;;;;;;;5011827;28;20181;-52
2023/03/31 07:47:10;;;;;;;2.70;2.20;;;;;;;;;;5003787;28;20211;-53
2023/03/31 07:49:36;;;;;;;3.63;2.00;;;;;;;;;;5005755;28;20654;-52
2023/03/31 07:52:02;;;;;;;3.77;2.33;;;;;;;;;;5006664;28;20203;-53
2023/03/31 07:54:28;;;;;;;3.53;2.27;;;;;;;;;;5007324;28;20183;-52
2023/03/31 07:56:54;;;;;;;4.13;2.30;;;;;;;;;;5009161;28;20689;-52
2023/03/31 07:59:20;;;;;;;3.50;2.10;;;;;;;;;;5007332;28;20273;-52
2023/03/31 08:01:47;;;;;;;3.53;2.20;;;;;;;;;;5014429;28;20224;-52
2023/03/31 08:04:13;;;;;;;3.27;2.20;;;;;;;;;;5009878;28;20256;-53
2023/03/31 08:06:39;;;;;;;2.50;2.30;;;;;;;;;;5006376;28;20282;-52
2023/03/31 08:09:08;;;;;;;3.40;2.33;;;;;;;;;;5007259;28;20658;-52
2023/03/31 08:11:34;;;;;;;4.50;2.60;;;;;;;;;;5012660;28;20289;-52
2023/03/31 08:14:00;;;;;;;3.67;2.30;;;;;;;;;;5006293;28;20186;-53
2023/03/31 08:16:26;;;;;;;3.37;2.03;;;;;;;;;;5008277;28;20666;-52
2023/03/31 08:18:52;;;;;;;3.17;2.30;;;;;;;;;;5012713;28;20213;-52
2023/03/31 08:21:18;;;;;;;2.30;2.10;;;;;;;;;;5004600;28;20260;-52
2023/03/31 08:23:44;;;;;;;3.37;2.10;;;;;;;;;;5006593;28;20220;-52
2023/03/31 08:26:12;;;;;;;3.10;2.00;;;;;;;;;;5014858;28;20179;-53
2023/03/31 08:28:38;;;;;;;3.70;2.53;;;;;;;;;;5006190;28;20211;-52
2023/03/31 08:31:09;;;;;;;7.57;2.60;;;;;;;;;;5015382;28;20243;-52
2023/03/31 08:33:35;;;;;;;2.77;1.90;;;;;;;;;;5001675;28;20230;-52
2023/03/31 08:36:02;;;;;;;3.30;2.10;;;;;;;;;;5005130;28;20178;-52
2023/03/31 08:38:28;;;;;;;3.87;2.43;;;;;;;;;;5004010;28;20205;-52
2023/03/31 08:41:04;;;;;;;3.40;2.20;;;;;;;;;;5008862;28;20266;-52
2023/03/31 08:43:36;;;;;;;4.27;2.10;;;;;;;;;;5005188;28;20182;-52
2023/03/31 08:46:03;;;;;;;3.33;1.93;;;;;;;;;;5006272;28;20233;-52
2023/03/31 08:48:31;;;;;;;3.73;2.47;;;;;;;;;;5006685;28;20729;-52
2023/03/31 08:51:02;;;;;;;5.27;2.40;;;;;;;;;;5010114;28;20202;-52
2023/03/31 08:53:30;;;;;;;5.53;2.50;;;;;;;;;;5008512;28;20594;-51
2023/03/31 08:55:58;;;;;;;4.23;2.20;;;;;;;;;;5004590;28;20182;-52
2023/03/31 08:58:39;;;;;;;3.37;2.13;;;;;;;;;;5005974;28;20635;-52
2023/03/31 09:01:05;;;;;;;4.77;2.37;;;;;;;;;;5006974;28;20189;-51
2023/03/31 09:03:37;;;;;;;7.67;2.53;;;;;;;;;;5012481;28;20181;-51
2023/03/31 09:06:06;;;;;;;7.07;2.40;;;;;;;;;;5008469;28;20586;-55
2023/03/31 09:08:36;;;;;;;7.70;2.57;;;;;;;;;;5003905;28;20457;-52
2023/03/31 09:11:03;;;;;;;5.33;2.50;;;;;;;;;;5001852;28;20208;-52
2023/03/31 09:13:49;;;;;;;4.87;2.20;;;;;;;;;;5005568;28;20244;-52
2023/03/31 09:16:18;;;;;;;2.93;2.17;;;;;;;;;;5003716;28;20216;-52
2023/03/31 09:18:45;;;;;;;5.10;2.17;;;;;;;;;;5002035;28;20278;-52
2023/03/31 09:21:30;;;;;;;5.90;2.63;;;;;;;;;;5008348;28;20309;-52
2023/03/31 09:24:01;;;;;;;6.27;2.60;;;;;;;;;;5000416;28;20177;-52
2023/03/31 09:27:06;;;;;;;5.07;2.17;;;;;;;;;;5004444;28;20189;-52
2023/03/31 09:29:42;;;;;;;4.47;2.40;;;;;;;;;;5024492;28;20212;-52
2023/03/31 09:32:18;;;;;;;4.80;2.43;;;;;;;;;;5021845;28;20648;-52
2023/03/31 09:34:45;;;;;;;6.00;2.67;;;;;;;;;;5014506;28;20194;-52
2023/03/31 09:37:12;;;;;;;10.40;2.90;;;;;;;;;;5008421;28;20273;-52
2023/03/31 09:39:38;;;;;;;4.33;2.23;;;;;;;;;;5010423;28;20190;-52
2023/03/31 09:42:04;;;;;;;7.07;2.63;;;;;;;;;;5012704;28;20179;-52
2023/03/31 09:44:38;;;;;;;4.73;2.70;;;;;;;;;;5010329;28;20533;-52
2023/03/31 09:47:06;;;;;;;4.40;2.40;;;;;;;;;;5008096;28;20182;-52
2023/03/31 09:49:35;;;;;;;10.40;2.63;;;;;;;;;;5009514;28;20244;-52
2023/03/31 09:52:06;;;;;;;4.33;2.63;;;;;;;;;;5011842;28;20183;-52
2023/03/31 09:54:37;;;;;;;7.20;2.87;;;;;;;;;;5010432;28;20702;-52
2023/03/31 09:57:12;;;;;;;4.63;2.73;;;;;;;;;;5011356;28;20182;-52
2023/03/31 09:59:38;;;;;;;3.73;2.43;;;;;;;;;;5015724;28;20190;-52
2023/03/31 10:02:18;;;;;;;2.63;2.07;;;;;;;;;;5016656;28;20182;-52
2023/03/31 10:04:45;;;;;;;6.67;2.67;;;;;;;;;;5010401;28;20321;-52
2023/03/31 10:07:12;;;;;;;6.07;2.47;;;;;;;;;;5013270;28;20174;-52
2023/03/31 10:09:38;;;;;;;10.40;3.10;;;;;;;;;;5011971;28;20202;-52
2023/03/31 10:12:06;;;;;;;8.87;2.60;;;;;;;;;;5018602;28;20202;-52
2023/03/31 10:14:46;;;;;;;7.27;2.57;;;;;;;;;;5012812;28;20154;-53
2023/03/31 10:17:16;;;;;;;6.77;2.90;;;;;;;;;;5014766;28;20179;-52
2023/03/31 10:19:50;;;;;;;4.10;2.13;;;;;;;;;;5019802;28;20586;-52
2023/03/31 10:22:26;;;;;;;5.87;2.60;;;;;;;;;;5019281;28;20213;-52
2023/03/31 10:24:52;;;;;;;5.80;3.00;;;;;;;;;;5025381;28;20177;-52
2023/03/31 10:27:29;;;;;;;5.87;2.43;;;;;;;;;;5020286;28;20646;-52
2023/03/31 10:29:58;;;;;;;7.13;2.60;;;;;;;;;;5010074;28;20185;-52
2023/03/31 10:32:27;;;;;;;4.43;2.13;;;;;;;;;;5020398;28;20542;-52
2023/03/31 10:34:54;;;;;;;3.63;2.00;;;;;;;;;;5012381;28;20174;-52
2023/03/31 10:37:22;;;;;;;4.40;2.60;;;;;;;;;;5010630;28;20174;-52
2023/03/31 10:39:56;;;;;;;4.77;2.40;;;;;;;;;;5019806;28;20178;-52
2023/03/31 10:42:22;;;;;;;6.10;2.70;;;;;;;;;;5019559;28;20190;-52
2023/03/31 10:44:49;;;;;;;9.83;2.87;;;;;;;;;;5015204;28;20183;-52
2023/03/31 10:47:15;;;;;;;11.23;3.17;;;;;;;;;;5021925;28;20228;-55
2023/03/31 10:49:42;;;;;;;5.27;3.07;;;;;;;;;;5012781;28;20201;-52
2023/03/31 10:52:17;;;;;;;9.57;3.07;;;;;;;;;;5018249;28;20650;-53
2023/03/31 10:54:52;;;;;;;6.30;2.57;;;;;;;;;;5010811;28;20170;-52
2023/03/31 10:57:23;;;;;;;5.33;3.27;;;;;;;;;;5012932;28;20170;-52
2023/03/31 10:59:57;;;;;;;4.90;2.80;;;;;;;;;;5022720;28;20517;-52
2023/03/31 11:02:32;;;;;;;6.33;2.70;;;;;;;;;;5020668;28;20195;-52
2023/03/31 11:05:24;;;;;;;6.37;2.60;;;;;;;;;;5014911;28;20517;-52
2023/03/31 11:08:08;;;;;;;6.10;2.60;;;;;;;;;;5016081;28;20201;-52
2023/03/31 11:10:40;;;;;;;3.23;2.37;;;;;;;;;;5024052;28;20613;-52
2023/03/31 11:13:24;;;;;;;7.07;2.90;;;;;;;;;;5028766;28;20696;-52
2023/03/31 11:15:56;;;;;;;4.67;2.60;;;;;;;;;;5024791;28;20223;-52
2023/03/31 11:18:32;;;;;;;5.57;2.60;;;;;;;;;;5018047;28;20181;-52
2023/03/31 11:21:19;;;;;;;5.47;2.20;;;;;;;;;;5013800;28;20855;-52
2023/03/31 11:23:57;;;;;;;6.90;2.47;;;;;;;;;;5016893;28;20194;-52
2023/03/31 11:26:32;;;;;;;4.33;2.17;;;;;;;;;;5008408;28;20171;-52
2023/03/31 11:28:58;;;;;;;2.97;1.83;;;;;;;;;;5002347;28;20252;-52
2023/03/31 11:31:43;;;;;;;6.47;2.17;;;;;;;;;;5008607;28;20305;-52
2023/03/31 11:34:33;;;;;;;2.40;1.83;;;;;;;;;;5007536;28;20181;-52
2023/03/31 11:36:59;;;;;;;3.73;2.10;;;;;;;;;;5008741;28;20182;-52
2023/03/31 11:39:40;;;;;;;2.07;1.87;;;;;;;;;;5007718;28;20186;-53
2023/03/31 11:42:29;;;;;;;5.83;2.63;;;;;;;;;;5001733;28;20221;-55
2023/03/31 11:44:58;;;;;;;6.30;2.63;;;;;;;;;;5014080;28;20193;-55
2023/03/31 11:47:36;;;;;;;3.37;1.93;;;;;;;;;;5018065;28;20215;-54
2023/03/31 11:50:10;;;;;;;7.30;2.30;;;;;;;;;;5017350;28;20265;-55
2023/03/31 11:52:41;;;;;;;5.83;2.27;;;;;;;;;;5009552;28;20203;-55
2023/03/31 11:55:17;;;;;;;3.70;1.80;;;;;;;;;;5009523;28;20250;-54
2023/03/31 11:57:46;;;;;;;4.57;1.97;;;;;;;;;;5006591;28;20200;-54
2023/03/31 12:00:16;;;;;;;4.50;2.57;;;;;;;;;;5010810;28;20673;-55
2023/03/31 12:03:06;;;;;;;4.30;1.77;;;;;;;;;;5005196;28;20170;-54
2023/03/31 12:05:33;;;;;;;8.73;3.17;;;;;;;;;;5005410;28;20242;-54
2023/03/31 12:08:06;;;;;;;3.67;1.70;;;;;;;;;;5006816;28;20209;-55
2023/03/31 12:10:35;;;;;;;7.73;2.10;;;;;;;;;;5005620;28;20186;-54
2023/03/31 12:13:19;;;;;;;5.97;2.57;;;;;;;;;;5005513;28;20189;-55
2023/03/31 12:15:51;;;;;;;6.13;2.57;;;;;;;;;;5007047;28;20205;-55
2023/03/31 12:18:22;;;;;;;6.07;2.23;;;;;;;;;;5004150;28;20179;-56
2023/03/31 12:20:58;;;;;;;5.00;2.03;;;;;;;;;;5005244;28;20238;-55
2023/03/31 12:23:27;;;;;;;6.47;3.13;;;;;;;;;;5004518;28;20210;-55
2023/03/31 12:26:02;;;;;;;7.03;2.60;;;;;;;;;;5006297;28;20646;-55
2023/03/31 12:28:31;;;;;;;9.57;2.67;;;;;;;;;;5008457;28;20206;-55
2023/03/31 12:31:00;;;;;;;4.27;2.60;;;;;;;;;;5006983;28;20508;-55
2023/03/31 12:33:28;;;;;;;6.23;2.70;;;;;;;;;;5009970;28;20185;-55
2023/03/31 12:35:57;;;;;;;7.93;3.07;;;;;;;;;;5006581;28;20202;-55
2023/03/31 12:38:23;;;;;;;5.93;2.60;;;;;;;;;;5001909;28;20651;-55
2023/03/31 12:41:08;;;;;;;5.97;2.40;;;;;;;;;;5003750;28;20191;-54
2023/03/31 12:43:49;;;;;;;7.20;2.90;;;;;;;;;;5005776;28;20175;-55
2023/03/31 12:46:21;;;;;;;6.33;3.47;;;;;;;;;;5007093;28;20200;-55
2023/03/31 12:48:56;;;;;;;6.67;2.20;;;;;;;;;;5005170;28;20256;-55
2023/03/31 12:51:27;;;;;;;10.37;2.40;;;;;;;;;;4998573;28;20189;-55
2023/03/31 12:54:06;;;;;;;7.23;3.13;;;;;;;;;;5005503;28;20232;-55
2023/03/31 12:57:08;;;;;;;8.93;3.63;;;;;;;;;;5008081;28;20205;-55
2023/03/31 12:59:35;;;;;;;7.83;2.73;;;;;;;;;;4961973;28;20403;-55
2023/03/31 13:02:21;;;;;;;7.97;2.70;;;;;;;;;;4992527;28;20520;-56
2023/03/31 13:04:49;;;;;;;7.27;2.73;;;;;;;;;;5002036;28;20515;-55
2023/03/31 13:07:25;;;;;;;5.43;2.77;;;;;;;;;;4999089;28;20174;-55
2023/03/31 13:09:55;;;;;;;6.67;2.53;;;;;;;;;;5009370;28;20365;-55
2023/03/31 13:12:22;;;;;;;4.67;2.50;;;;;;;;;;5003092;28;20763;-55
2023/03/31 13:14:52;;;;;;;8.90;3.13;;;;;;;;;;5009507;28;20187;-55
2023/03/31 13:17:24;;;;;;;4.50;2.33;;;;;;;;;;5007360;28;20224;-55
2023/03/31 13:19:51;;;;;;;8.13;3.33;;;;;;;;;;5006045;28;20182;-55
2023/03/31 13:22:34;;;;;;;6.43;2.63;;;;;;;;;;5000565;28;20222;-55
2023/03/31 13:25:19;;;;;;;4.73;2.10;;;;;;;;;;5005140;28;20353;-55
2023/03/31 13:27:48;;;;;;;5.43;2.10;;;;;;;;;;5004793;28;20257;-55
2023/03/31 13:30:33;;;;;;;5.67;2.20;;;;;;;;;;5009692;28;20190;-55
2023/03/31 13:33:11;;;;;;;7.50;2.23;;;;;;;;;;5004991;28;20178;-55
2023/03/31 13:35:39;;;;;;;6.53;2.70;;;;;;;;;;5005932;28;20209;-55
2023/03/31 13:38:28;;;;;;;5.73;2.40;;;;;;;;;;5007587;28;20207;-55
2023/03/31 13:44:16;;;;;;;5.33;2.93;;;;;;;;;;5005377;28;20169;-55
2023/03/31 13:46:52;;;;;;;8.57;2.17;;;;;;;;;;5005435;28;20190;-54
2023/03/31 13:49:21;;;;;;;6.30;2.50;;;;;;;;;;5005260;28;20202;-57
2023/03/31 13:51:55;;;;;;;3.10;1.70;;;;;;;;;;5005922;28;20193;-57
2023/03/31 13:54:35;;;;;;;3.60;2.03;;;;;;;;;;5006344;28;20629;-57
2023/03/31 13:57:13;;;;;;;5.23;1.80;;;;;;;;;;5004617;28;20178;-57
2023/03/31 13:59:54;;;;;;;3.67;3.37;;;;;;;;;;5007599;28;20210;-57
2023/03/31 14:02:39;;;;;;;7.27;3.80;;;;;;;;;;5002119;28;20511;-56
2023/03/31 14:05:25;;;;;;;5.90;2.40;;;;;;;;;;5005624;28;20536;-57
2023/03/31 14:07:56;;;;;;;2.43;1.90;;;;;;;;;;4988509;28;20195;-57
2023/03/31 14:10:23;;;;;;;5.00;2.43;;;;;;;;;;4988129;28;20171;-57
2023/03/31 14:12:51;;;;;;;7.10;2.50;;;;;;;;;;4989548;28;20195;-57
2023/03/31 14:15:19;;;;;;;4.40;1.77;;;;;;;;;;5018454;28;20198;-58
2023/03/31 14:17:45;;;;;;;5.33;2.10;;;;;;;;;;5015678;28;20174;-56
2023/03/31 14:20:14;;;;;;;3.70;2.90;;;;;;;;;;5007914;28;20183;-57
2023/03/31 14:22:47;;;;;;;4.43;2.33;;;;;;;;;;5012099;28;20190;-57
2023/03/31 14:25:45;;;;;;;5.30;1.90;;;;;;;;;;5011080;28;20168;-58
2023/03/31 14:28:12;;;;;;;3.83;2.20;;;;;;;;;;5010585;28;20222;-57
2023/03/31 14:30:57;;;;;;;3.47;2.50;;;;;;;;;;5013595;28;20217;-57
2023/03/31 14:33:29;;;;;;;5.07;2.27;;;;;;;;;;5031792;28;20181;-57
2023/03/31 14:36:00;;;;;;;5.23;2.10;;;;;;;;;;5032398;28;20178;-57
2023/03/31 14:38:27;;;;;;;3.23;1.93;;;;;;;;;;5013719;28;20179;-57
2023/03/31 14:40:55;;;;;;;6.87;2.33;;;;;;;;;;5012310;28;20186;-56
2023/03/31 14:43:23;;;;;;;4.40;2.10;;;;;;;;;;5011825;28;20155;-57
2023/03/31 14:46:02;;;;;;;4.37;2.33;;;;;;;;;;5007785;28;20183;-57
2023/03/31 14:48:29;;;;;;;3.07;2.03;;;;;;;;;;5013232;28;20245;-56
2023/03/31 14:51:00;;;;;;;7.70;2.83;;;;;;;;;;5030084;28;20165;-56
2023/03/31 14:53:27;;;;;;;3.70;2.50;;;;;;;;;;5024828;28;20177;-56
2023/03/31 14:56:13;;;;;;;5.70;3.00;;;;;;;;;;5011422;28;20201;-56
2023/03/31 14:58:41;;;;;;;5.07;2.20;;;;;;;;;;5011238;28;20266;-56
2023/03/31 15:01:08;;;;;;;5.10;2.23;;;;;;;;;;5011738;28;20264;-57
2023/03/31 15:03:36;;;;;;;5.10;2.33;;;;;;;;;;5011064;28;20231;-57
2023/03/31 15:06:03;;;;;;;5.20;3.20;;;;;;;;;;5014832;28;20183;-57